Terminal Aerodrome Forecast
Issued by NWS

Home | Current Version | Previous Version | Text Only | Print | Product List | Glossary Off
Versions: 1 2 3 4 5 6 7 8 9 10 11 12 13 14 15 16 17 18 19 20 21 22 23 24 25

000
FTUS43 KLOT 241314 AAA
TAFORD
TAF AMD
KORD 241314Z 2413/2518 19010G16KT 6SM -RA OVC010
      TEMPO 2413/2416 2SM TSRA OVC008CB
     FM241600 20011G18KT P6SM BKN015
     FM241900 21012G19KT P6SM BKN035
     FM250000 22008KT P6SM SCT035 BKN100 PROB30 2504/2510 3SM TSRA
      OVC025CB
     FM251500 26008KT P6SM VCSH BKN035=

USA.gov is the U.S. government's official web portal to all federal, state and local government web resources and services.